createdAt,value
2023-03-03T00:01:09.272Z,70.90
2023-03-03T00:03:36.692Z,70.98
2023-03-03T00:06:09.434Z,70.73
2023-03-03T00:08:37.183Z,70.83
2023-03-03T00:11:06.953Z,70.85
2023-03-03T00:13:48.113Z,71.22
2023-03-03T00:16:28.022Z,70.91
2023-03-03T00:18:56.346Z,71.04
2023-03-03T00:21:29.550Z,71.18
2023-03-03T00:24:14.668Z,71.15
2023-03-03T00:26:50.342Z,71.13
2023-03-03T00:29:29.615Z,70.97
2023-03-03T00:32:31.793Z,71.20
2023-03-03T00:35:24.451Z,71.06
2023-03-03T00:38:00.026Z,71.11
2023-03-03T00:40:39.850Z,70.92
2023-03-03T00:43:34.502Z,70.94
2023-03-03T00:46:02.118Z,71.55
2023-03-03T00:48:38.200Z,71.37
2023-03-03T00:51:35.801Z,71.10
2023-03-03T00:54:03.684Z,71.28
2023-03-03T00:56:31.186Z,70.87
2023-03-03T00:58:58.744Z,71.31
2023-03-03T01:01:26.149Z,71.34
2023-03-03T01:03:53.711Z,71.30
2023-03-03T01:06:21.227Z,71.52
2023-03-03T01:08:48.803Z,71.39
2023-03-03T01:11:23.235Z,71.86
2023-03-03T01:13:53.153Z,72.00
2023-03-03T01:16:21.138Z,72.10
2023-03-03T01:18:48.904Z,71.85
2023-03-03T01:21:16.214Z,71.44
2023-03-03T01:23:43.792Z,71.72
2023-03-03T01:26:11.139Z,71.66
2023-03-03T01:28:38.734Z,72.06
2023-03-03T01:31:06.773Z,72.31
2023-03-03T01:33:36.571Z,72.40
2023-03-03T01:36:05.045Z,72.57
2023-03-03T01:38:35.921Z,72.32
2023-03-03T01:41:04.172Z,72.73
2023-03-03T01:43:33.873Z,72.37
2023-03-03T01:46:01.163Z,72.49
2023-03-03T01:48:44.816Z,72.76
2023-03-03T01:51:27.365Z,72.97
2023-03-03T01:54:00.920Z,73.77
2023-03-03T01:56:29.773Z,75.16
2023-03-03T01:59:07.395Z,75.12
2023-03-03T02:01:35.872Z,74.69
2023-03-03T02:04:04.276Z,74.68
2023-03-03T02:06:40.403Z,74.67
2023-03-03T02:10:05.732Z,74.82
2023-03-03T02:12:40.959Z,74.35
2023-03-03T02:15:32.296Z,74.27
2023-03-03T02:18:07.414Z,74.62
2023-03-03T02:20:41.102Z,74.49
2023-03-03T02:23:34.560Z,74.38
2023-03-03T02:26:15.492Z,74.05
2023-03-03T02:28:43.867Z,74.48
2023-03-03T02:31:17.654Z,74.74
2023-03-03T02:33:49.128Z,74.67
2023-03-03T02:36:34.561Z,74.60
2023-03-03T02:39:23.944Z,75.32
2023-03-03T02:42:12.870Z,75.27
2023-03-03T02:44:40.279Z,75.21
2023-03-03T02:47:08.057Z,74.91
2023-03-03T02:49:36.801Z,74.67
2023-03-03T02:52:09.946Z,74.30
2023-03-03T02:54:38.006Z,74.07
2023-03-03T02:57:06.361Z,74.14
2023-03-03T02:59:33.637Z,74.18
2023-03-03T03:02:01.544Z,74.25
2023-03-03T03:04:28.902Z,73.95
2023-03-03T03:06:57.106Z,74.66
2023-03-03T03:09:25.950Z,74.14
2023-03-03T03:11:53.666Z,74.34
2023-03-03T03:14:21.021Z,73.85
2023-03-03T03:16:48.721Z,73.96
2023-03-03T03:19:16.241Z,74.18
2023-03-03T03:21:43.900Z,73.94
2023-03-03T03:24:11.290Z,74.38
2023-03-03T03:26:38.915Z,74.34
2023-03-03T03:29:07.738Z,74.42
2023-03-03T03:31:35.368Z,74.36
2023-03-03T03:34:02.715Z,74.13
2023-03-03T03:36:30.288Z,73.61
2023-03-03T03:38:57.567Z,73.65
2023-03-03T03:41:25.152Z,73.46
2023-03-03T03:43:52.445Z,73.38
2023-03-03T03:46:20.048Z,73.73
2023-03-03T03:48:47.394Z,73.58
2023-03-03T03:51:15.128Z,73.30
2023-03-03T03:53:42.397Z,73.36
2023-03-03T03:56:09.987Z,73.51
2023-03-03T03:58:37.287Z,74.08
2023-03-03T04:01:08.144Z,74.20
2023-03-03T04:03:36.145Z,74.98
2023-03-03T04:06:03.883Z,75.18
2023-03-03T04:08:31.156Z,75.42
2023-03-03T04:10:58.880Z,75.03
2023-03-03T04:13:29.017Z,74.62
2023-03-03T04:15:56.599Z,74.65
2023-03-03T04:18:23.929Z,74.42
2023-03-03T04:20:52.848Z,74.05
2023-03-03T04:23:20.631Z,74.32
2023-03-03T04:25:49.689Z,74.75
2023-03-03T04:28:17.778Z,74.43
2023-03-03T04:30:45.895Z,74.32
2023-03-03T04:33:13.534Z,73.91
2023-03-03T04:35:41.195Z,74.47
2023-03-03T04:38:08.612Z,74.74
2023-03-03T04:40:36.242Z,74.14
2023-03-03T04:43:04.370Z,74.04
2023-03-03T04:45:32.037Z,73.95
2023-03-03T04:47:59.475Z,73.89
2023-03-03T04:50:27.501Z,73.99
2023-03-03T04:52:55.275Z,73.61
2023-03-03T04:55:22.861Z,73.84
2023-03-03T04:57:50.119Z,73.51
2023-03-03T05:00:18.647Z,73.53
2023-03-03T05:02:49.078Z,73.82
2023-03-03T05:05:16.913Z,73.94
2023-03-03T05:07:44.163Z,74.73
2023-03-03T05:10:12.104Z,75.00
2023-03-03T05:12:39.663Z,75.07
2023-03-03T05:15:08.164Z,74.79
2023-03-03T05:17:35.671Z,75.31
2023-03-03T05:20:05.754Z,75.95
2023-03-03T05:22:33.028Z,75.43
2023-03-03T05:25:00.644Z,75.00
2023-03-03T05:27:27.841Z,74.97
2023-03-03T05:29:55.619Z,74.73
2023-03-03T05:32:23.104Z,74.95
2023-03-03T05:34:52.605Z,75.01
2023-03-03T05:37:19.929Z,75.15
2023-03-03T05:39:47.716Z,75.09
2023-03-03T05:42:15.188Z,74.90
2023-03-03T05:44:43.068Z,75.10
2023-03-03T05:47:10.936Z,75.41
2023-03-03T05:49:38.571Z,74.96
2023-03-03T05:52:05.961Z,74.48
2023-03-03T05:54:33.488Z,74.36
2023-03-03T05:57:00.852Z,74.20
2023-03-03T05:59:28.401Z,73.88
2023-03-03T06:01:55.752Z,73.67
2023-03-03T06:04:23.380Z,72.99
2023-03-03T06:06:51.555Z,72.89
2023-03-03T06:09:19.358Z,73.31
2023-03-03T06:11:46.633Z,73.27
2023-03-03T06:14:14.249Z,73.08
2023-03-03T06:16:41.645Z,73.32
2023-03-03T06:19:09.239Z,73.45
2023-03-03T06:21:36.459Z,73.51
2023-03-03T06:24:04.228Z,73.52
2023-03-03T06:26:33.049Z,73.16
2023-03-03T06:29:01.611Z,73.65
2023-03-03T06:31:28.965Z,73.63
2023-03-03T06:33:56.610Z,73.83
2023-03-03T06:36:25.506Z,74.38
2023-03-03T06:38:53.130Z,74.73
2023-03-03T06:41:20.530Z,73.83
2023-03-03T06:43:48.075Z,73.60
2023-03-03T06:46:15.467Z,73.07
2023-03-03T06:48:43.188Z,73.32
2023-03-03T06:51:30.891Z,73.34
2023-03-03T06:54:06.717Z,72.92
2023-03-03T06:56:37.620Z,73.54
2023-03-03T06:59:18.617Z,74.22
2023-03-03T07:01:50.657Z,75.37
2023-03-03T07:04:33.820Z,76.39
2023-03-03T07:07:15.254Z,76.54
2023-03-03T07:09:50.563Z,76.63
2023-03-03T07:12:30.656Z,76.27
2023-03-03T07:15:20.447Z,76.07
2023-03-03T07:17:53.179Z,77.02
2023-03-03T07:20:35.381Z,76.16
2023-03-03T07:23:31.578Z,76.71
2023-03-03T07:25:59.179Z,76.70
2023-03-03T07:28:29.536Z,76.61
2023-03-03T07:30:58.409Z,75.98
2023-03-03T07:33:28.821Z,76.03
2023-03-03T07:35:59.819Z,76.64
2023-03-03T07:38:40.384Z,76.30
2023-03-03T07:41:21.054Z,76.95
2023-03-03T07:43:55.839Z,76.79
2023-03-03T07:46:43.725Z,76.33
2023-03-03T07:49:40.137Z,76.65
2023-03-03T07:52:33.972Z,76.23
2023-03-03T07:55:23.649Z,76.06
2023-03-03T07:57:54.896Z,75.44
2023-03-03T08:00:28.627Z,75.21
2023-03-03T08:03:04.983Z,75.34
2023-03-03T08:05:41.899Z,75.45
2023-03-03T08:08:36.975Z,76.01
2023-03-03T08:11:06.182Z,76.57
2023-03-03T08:13:38.574Z,76.44
2023-03-03T08:16:11.447Z,76.68
2023-03-03T08:18:50.197Z,76.95
2023-03-03T08:21:24.318Z,76.71
2023-03-03T08:23:53.787Z,76.82
2023-03-03T08:26:23.701Z,77.08
2023-03-03T08:28:52.745Z,77.65
2023-03-03T08:31:38.155Z,77.37
2023-03-03T08:34:08.123Z,77.51
2023-03-03T08:36:35.434Z,77.39
2023-03-03T08:39:05.201Z,76.94
2023-03-03T08:41:32.627Z,76.52
2023-03-03T08:44:00.257Z,77.78
2023-03-03T08:46:28.742Z,76.81
2023-03-03T08:48:56.705Z,75.96
2023-03-03T08:51:24.917Z,75.32
2023-03-03T08:53:52.714Z,74.93
2023-03-03T08:56:20.046Z,75.24
2023-03-03T08:59:01.841Z,74.51
2023-03-03T09:01:31.704Z,74.72
2023-03-03T09:03:59.937Z,75.24
2023-03-03T09:06:27.374Z,75.98
2023-03-03T09:08:55.570Z,76.08
2023-03-03T09:11:27.751Z,75.99
2023-03-03T09:14:21.967Z,76.12
2023-03-03T09:16:53.497Z,76.08
2023-03-03T09:19:30.958Z,76.23
2023-03-03T09:22:19.069Z,76.74
2023-03-03T09:24:49.884Z,77.56
2023-03-03T09:27:37.258Z,77.45
2023-03-03T09:30:40.680Z,77.18
2023-03-03T09:33:33.467Z,76.93
2023-03-03T09:36:29.118Z,77.00
2023-03-03T09:39:00.726Z,76.79
2023-03-03T09:42:18.965Z,76.38
2023-03-03T09:45:04.744Z,77.09
2023-03-03T09:48:17.639Z,77.23
2023-03-03T09:51:09.132Z,77.57
2023-03-03T09:53:49.389Z,77.98
2023-03-03T09:56:21.395Z,77.69
2023-03-03T09:59:25.605Z,77.72
2023-03-03T10:02:20.560Z,78.09
2023-03-03T10:05:28.356Z,78.67
2023-03-03T10:08:21.763Z,78.35
2023-03-03T10:11:02.137Z,78.63
2023-03-03T10:13:54.659Z,78.28
2023-03-03T10:17:24.439Z,78.58
2023-03-03T10:20:09.956Z,78.40
2023-03-03T10:22:43.476Z,78.33
2023-03-03T10:25:47.140Z,77.97
2023-03-03T10:28:54.636Z,77.98
2023-03-03T10:31:59.620Z,78.13
2023-03-03T10:34:50.931Z,78.36
2023-03-03T10:37:42.768Z,78.22
2023-03-03T10:40:33.126Z,78.85
2023-03-03T10:43:09.284Z,79.05
2023-03-03T10:46:35.211Z,79.21
2023-03-03T10:49:19.793Z,79.41
2023-03-03T10:52:28.316Z,79.67
2023-03-03T10:55:04.762Z,79.63
2023-03-03T10:57:56.848Z,79.84
2023-03-03T11:00:52.611Z,80.09
2023-03-03T11:03:35.247Z,79.77
2023-03-03T11:06:22.374Z,79.82
2023-03-03T11:09:04.069Z,79.54
2023-03-03T11:11:55.812Z,78.86
2023-03-03T11:14:52.812Z,78.64
2023-03-03T11:17:37.720Z,77.94
2023-03-03T11:20:20.982Z,77.36
2023-03-03T11:23:27.618Z,78.24
2023-03-03T11:26:27.199Z,78.08
2023-03-03T11:29:39.267Z,78.48
2023-03-03T11:32:53.386Z,78.88
2023-03-03T11:35:50.290Z,79.39
2023-03-03T11:39:02.873Z,79.40
2023-03-03T11:41:36.465Z,79.28
2023-03-03T11:44:44.765Z,79.13
2023-03-03T11:47:31.772Z,78.48
2023-03-03T11:50:33.464Z,78.63
2023-03-03T11:53:44.750Z,79.12
2023-03-03T11:56:29.106Z,79.53
2023-03-03T11:59:14.354Z,78.95
2023-03-03T12:02:00.702Z,78.08
2023-03-03T12:04:40.798Z,77.77
2023-03-03T12:07:49.566Z,76.93
2023-03-03T12:10:42.493Z,75.49
2023-03-03T12:13:49.938Z,74.77
2023-03-03T12:16:44.612Z,73.66
2023-03-03T12:19:42.957Z,73.42
2023-03-03T12:22:34.150Z,73.62
2023-03-03T12:25:49.772Z,73.21
2023-03-03T12:28:27.618Z,73.20
2023-03-03T12:31:13.591Z,73.11
2023-03-03T12:33:56.944Z,73.33
2023-03-03T12:37:06.404Z,73.76
2023-03-03T12:39:57.972Z,74.68
2023-03-03T12:42:51.548Z,73.59
2023-03-03T12:46:06.824Z,74.93
2023-03-03T12:48:47.749Z,73.85
2023-03-03T12:51:50.620Z,73.54
2023-03-03T12:54:58.857Z,74.40
2023-03-03T12:57:56.087Z,74.81
2023-03-03T13:00:56.873Z,75.72
2023-03-03T13:03:59.427Z,76.21
2023-03-03T13:06:45.812Z,75.64
2023-03-03T13:09:46.721Z,75.89
2023-03-03T13:12:38.910Z,74.85
2023-03-03T13:15:54.856Z,75.01
2023-03-03T13:18:56.102Z,73.48
2023-03-03T13:21:47.447Z,73.51
2023-03-03T13:24:35.660Z,72.61
2023-03-03T13:27:16.944Z,71.93
2023-03-03T13:30:08.055Z,72.63
2023-03-03T13:32:49.325Z,73.65
2023-03-03T13:35:44.916Z,73.46
2023-03-03T13:38:33.405Z,72.65
2023-03-03T13:41:38.189Z,72.91
2023-03-03T13:44:35.795Z,73.32
2023-03-03T13:47:31.514Z,73.71
2023-03-03T13:50:30.845Z,73.80
2023-03-03T13:53:27.523Z,72.84
2023-03-03T13:56:23.621Z,72.66
2023-03-03T13:59:01.909Z,72.97
2023-03-03T14:01:58.269Z,72.90
2023-03-03T14:04:48.385Z,73.13
2023-03-03T14:07:33.812Z,72.70
2023-03-03T14:10:18.436Z,72.62
2023-03-03T14:13:25.336Z,73.13
2023-03-03T14:16:52.461Z,73.40
2023-03-03T14:19:32.896Z,72.59
2023-03-03T14:22:24.199Z,72.02
2023-03-03T14:25:03.976Z,72.43
2023-03-03T14:27:40.762Z,72.22
2023-03-03T14:30:23.919Z,71.95
2023-03-03T14:33:09.542Z,72.31
2023-03-03T14:36:00.953Z,71.67
2023-03-03T14:38:34.706Z,71.94
2023-03-03T14:41:35.145Z,72.25
2023-03-03T14:44:27.657Z,72.44
2023-03-03T14:47:22.809Z,71.76
2023-03-03T14:49:51.858Z,71.32
2023-03-03T14:52:23.960Z,71.12
2023-03-03T14:55:00.483Z,70.65
2023-03-03T14:57:46.376Z,70.57
2023-03-03T15:00:15.030Z,70.13
2023-03-03T15:03:16.504Z,70.53
2023-03-03T15:05:58.079Z,70.58
2023-03-03T15:08:34.983Z,71.93
2023-03-03T15:11:17.842Z,72.54
2023-03-03T15:13:45.812Z,71.59
2023-03-03T15:16:23.948Z,71.65
2023-03-03T15:19:43.663Z,72.25
2023-03-03T15:22:35.518Z,72.61
2023-03-03T15:25:58.809Z,72.84
2023-03-03T15:28:59.477Z,73.66
2023-03-03T15:31:48.503Z,73.61
2023-03-03T15:34:39.653Z,73.07
2023-03-03T15:37:34.047Z,74.00
2023-03-03T15:40:30.459Z,74.56
2023-03-03T15:43:12.157Z,74.94
2023-03-03T15:46:06.549Z,74.92
2023-03-03T15:48:45.490Z,75.49
2023-03-03T15:51:31.380Z,75.74
2023-03-03T15:54:07.651Z,76.57
2023-03-03T15:56:58.674Z,77.47
2023-03-03T15:59:42.383Z,77.18
2023-03-03T16:02:38.834Z,77.29
2023-03-03T16:06:02.601Z,77.42
2023-03-03T16:08:56.160Z,77.74
2023-03-03T16:12:09.290Z,78.25
2023-03-03T16:14:52.547Z,77.62
2023-03-03T16:17:57.141Z,77.50
2023-03-03T16:20:43.047Z,78.06
2023-03-03T16:23:23.327Z,78.45
2023-03-03T16:26:17.336Z,78.70
2023-03-03T16:29:14.201Z,79.46
2023-03-03T16:32:32.143Z,79.17
2023-03-03T16:35:24.814Z,79.24
2023-03-03T16:38:10.477Z,79.36
2023-03-03T16:40:49.725Z,79.48
2023-03-03T16:43:17.238Z,79.49
2023-03-03T16:45:45.976Z,79.74
2023-03-03T16:48:25.917Z,79.44
2023-03-03T16:51:19.822Z,79.93
2023-03-03T16:54:11.331Z,79.81
2023-03-03T16:56:52.016Z,80.89
2023-03-03T16:59:43.977Z,80.91
2023-03-03T17:02:56.034Z,80.83
2023-03-03T17:05:52.044Z,81.13
2023-03-03T17:08:40.704Z,80.97
2023-03-03T17:11:43.596Z,81.25
2023-03-03T17:14:36.234Z,80.79
2023-03-03T17:17:25.722Z,81.56
2023-03-03T17:20:45.028Z,81.98
2023-03-03T17:23:27.675Z,83.00
2023-03-03T17:26:31.705Z,83.51
2023-03-03T17:29:33.054Z,83.82
2023-03-03T17:32:31.646Z,84.07
2023-03-03T17:35:23.986Z,84.38
2023-03-03T17:38:16.728Z,84.08
2023-03-03T17:41:04.330Z,84.25
2023-03-03T17:44:02.595Z,83.89
2023-03-03T17:47:01.597Z,84.17
2023-03-03T17:49:43.901Z,84.30
2023-03-03T17:52:34.100Z,83.60
2023-03-03T17:55:16.513Z,84.11
2023-03-03T17:58:17.422Z,84.85
2023-03-03T18:00:50.605Z,85.24
2023-03-03T18:03:59.559Z,86.01
2023-03-03T18:06:35.796Z,86.24
2023-03-03T18:09:52.810Z,86.97
2023-03-03T18:12:47.649Z,87.24
2023-03-03T18:15:27.046Z,86.85
2023-03-03T18:18:21.497Z,86.69
2023-03-03T18:21:05.012Z,86.69
2023-03-03T18:23:42.107Z,86.92
2023-03-03T18:26:34.973Z,87.24
2023-03-03T18:29:19.651Z,86.90
2023-03-03T18:31:57.855Z,87.19
2023-03-03T18:34:28.283Z,86.56
2023-03-03T18:37:10.098Z,86.41
2023-03-03T18:40:10.089Z,86.96
2023-03-03T18:42:43.330Z,86.80
2023-03-03T18:45:18.087Z,86.68
2023-03-03T18:48:11.847Z,87.32
2023-03-03T18:50:48.008Z,87.79
2023-03-03T18:53:23.938Z,87.83
2023-03-03T18:55:57.906Z,88.17
2023-03-03T18:58:43.263Z,88.39
2023-03-03T19:01:31.471Z,88.49
2023-03-03T19:04:22.624Z,88.58
2023-03-03T19:06:49.992Z,89.21
2023-03-03T19:09:52.692Z,89.23
2023-03-03T19:12:53.595Z,88.90
2023-03-03T19:15:30.297Z,88.92
2023-03-03T19:18:23.967Z,88.25
2023-03-03T19:21:05.357Z,87.99
2023-03-03T19:23:54.465Z,88.25
2023-03-03T19:26:40.254Z,87.98
2023-03-03T19:29:49.273Z,88.30
2023-03-03T19:32:47.176Z,88.23
2023-03-03T19:36:03.337Z,87.72
2023-03-03T19:39:02.786Z,87.66
2023-03-03T19:42:04.919Z,87.70
2023-03-03T19:45:39.686Z,87.96
2023-03-03T19:48:39.433Z,88.74
2023-03-03T19:51:45.015Z,88.44
2023-03-03T19:54:57.700Z,88.47
2023-03-03T19:58:28.773Z,88.56
2023-03-03T20:01:19.964Z,88.32
2023-03-03T20:04:41.278Z,88.52
2023-03-03T20:07:31.446Z,88.65
2023-03-03T20:10:23.708Z,88.55
2023-03-03T20:13:20.898Z,89.08
2023-03-03T20:16:00.607Z,89.19
2023-03-03T20:19:06.564Z,89.59
2023-03-03T20:21:35.330Z,89.77
2023-03-03T20:24:24.913Z,89.78
2023-03-03T20:27:09.976Z,89.55
2023-03-03T20:29:55.296Z,89.64
2023-03-03T20:32:49.398Z,88.88
2023-03-03T20:35:38.041Z,89.65
2023-03-03T20:38:57.039Z,89.87
2023-03-03T20:42:05.936Z,89.45
2023-03-03T20:45:21.988Z,90.22
2023-03-03T20:48:15.503Z,90.55
2023-03-03T20:51:00.955Z,90.68
2023-03-03T20:53:36.507Z,90.80
2023-03-03T20:56:36.268Z,90.74
2023-03-03T20:59:29.802Z,90.50
2023-03-03T21:02:09.166Z,90.44
2023-03-03T21:04:37.131Z,90.62
2023-03-03T21:07:05.952Z,90.83
2023-03-03T21:09:39.277Z,90.91
2023-03-03T21:12:27.212Z,91.31
2023-03-03T21:15:27.684Z,91.34
2023-03-03T21:17:57.685Z,90.97
2023-03-03T21:20:32.590Z,91.40
2023-03-03T21:23:02.308Z,91.68
2023-03-03T21:25:41.872Z,91.76
2023-03-03T21:28:21.049Z,91.57
2023-03-03T21:31:15.935Z,91.19
2023-03-03T21:33:52.715Z,91.49
2023-03-03T21:36:37.122Z,90.97
2023-03-03T21:39:26.383Z,90.99
2023-03-03T21:41:55.505Z,91.19
2023-03-03T21:44:41.443Z,91.11
2023-03-03T21:47:30.921Z,90.82
2023-03-03T21:49:58.506Z,91.03
2023-03-03T21:52:25.822Z,91.09
2023-03-03T21:54:53.405Z,91.03
2023-03-03T21:57:20.747Z,90.65
2023-03-03T21:59:48.397Z,90.33
2023-03-03T22:02:15.838Z,89.85
2023-03-03T22:04:43.563Z,89.36
2023-03-03T22:07:11.612Z,90.21
2023-03-03T22:09:39.240Z,90.04
2023-03-03T22:12:07.855Z,89.74
2023-03-03T22:14:35.598Z,90.44
2023-03-03T22:17:03.476Z,90.55
2023-03-03T22:19:31.442Z,90.17
2023-03-03T22:21:58.706Z,90.02
2023-03-03T22:24:26.354Z,90.30
2023-03-03T22:26:53.650Z,89.79
2023-03-03T22:29:23.126Z,90.00
2023-03-03T22:31:51.341Z,89.87
2023-03-03T22:34:19.161Z,90.31
2023-03-03T22:36:46.435Z,90.30
2023-03-03T22:39:14.002Z,90.93
2023-03-03T22:41:41.301Z,90.85
2023-03-03T22:44:08.980Z,91.20
2023-03-03T22:46:36.409Z,91.28
2023-03-03T22:49:04.096Z,91.57
2023-03-03T22:51:31.467Z,91.81
2023-03-03T22:53:59.111Z,92.07
2023-03-03T22:56:26.368Z,92.41
2023-03-03T22:58:54.067Z,92.41
2023-03-03T23:01:21.452Z,91.70
2023-03-03T23:03:50.383Z,92.00
2023-03-03T23:06:17.770Z,91.78
2023-03-03T23:08:47.215Z,92.38
2023-03-03T23:11:14.518Z,92.45
2023-03-03T23:13:42.180Z,91.49
2023-03-03T23:16:09.486Z,91.38
2023-03-03T23:18:37.188Z,91.46
2023-03-03T23:21:05.258Z,91.41
2023-03-03T23:23:33.066Z,91.21
2023-03-03T23:26:00.909Z,91.10
2023-03-03T23:28:28.561Z,91.38
2023-03-03T23:30:55.866Z,91.61
2023-03-03T23:33:23.436Z,92.03
2023-03-03T23:35:50.757Z,91.79
2023-03-03T23:38:18.339Z,92.32
2023-03-03T23:40:48.724Z,91.76
2023-03-03T23:43:16.379Z,92.18
2023-03-03T23:45:43.839Z,92.53
2023-03-03T23:48:11.817Z,92.37
2023-03-03T23:50:39.366Z,92.49
2023-03-03T23:53:07.999Z,92.54
2023-03-03T23:55:36.368Z,92.40
2023-03-03T23:58:04.817Z,92.42
